Time,TemperatureF,DewpointF,PressureIn,WindDirection,WindDirectionDegrees,WindSpeedMPH,WindSpeedGustMPH,Humidity,HourlyPrecipIn,Conditions,Clouds,dailyrainin,SoftwareType,DateUTC
2013-02-27 00:01:00,43.9,43.9,29.56,WNW,288,4.0,4.0,100,0.00,,,0.00,Wunderground v.1.15,2013-02-27 05:01:00,
2013-02-27 00:02:00,43.9,43.9,29.56,West,275,4.0,4.0,100,0.00,,,0.00,Wunderground v.1.15,2013-02-27 05:02:00,
2013-02-27 00:06:00,43.9,43.9,29.56,NE,54,1.0,8.0,100,0.00,,,0.00,Wunderground v.1.15,2013-02-27 05:06:00,
2013-02-27 00:09:00,44.1,44.1,29.56,NNE,27,2.0,8.0,100,0.00,,,0.00,Wunderground v.1.15,2013-02-27 05:09:00,
2013-02-27 00:15:00,44.1,44.1,29.54,NE,44,5.0,9.0,100,0.00,,,0.00,Wunderground v.1.15,2013-02-27 05:15:00,
2013-02-27 00:20:00,44.2,44.2,29.54,NNE,31,6.0,6.0,100,0.00,,,0.00,Wunderground v.1.15,2013-02-27 05:20:00,
2013-02-27 00:26:00,44.2,44.2,29.54,NE,37,5.0,9.0,100,0.00,,,0.00,Wunderground v.1.15,2013-02-27 05:26:00,
2013-02-27 00:31:00,44.3,44.3,29.54,NNE,17,6.0,10.0,100,0.00,,,0.00,Wunderground v.1.15,2013-02-27 05:31:00,
2013-02-27 00:36:00,44.3,44.3,29.54,NE,40,9.0,10.0,100,0.00,,,0.00,Wunderground v.1.15,2013-02-27 05:36:00,
2013-02-27 00:41:00,44.5,44.5,29.54,NE,41,9.0,9.0,100,0.00,,,0.00,Wunderground v.1.15,2013-02-27 05:41:00,
2013-02-27 00:46:00,44.5,44.5,29.54,ENE,58,7.0,10.0,100,0.00,,,0.00,Wunderground v.1.15,2013-02-27 05:46:00,
2013-02-27 00:51:00,44.5,44.5,29.54,NE,44,6.0,6.0,100,0.00,,,0.00,Wunderground v.1.15,2013-02-27 05:51:00,
2013-02-27 00:56:00,44.5,44.5,29.54,NNE,13,6.0,6.0,100,0.00,,,0.00,Wunderground v.1.15,2013-02-27 05:56:00,
2013-02-27 01:01:00,44.5,44.5,29.53,NNE,13,6.0,6.0,100,0.00,,,0.00,Wunderground v.1.15,2013-02-27 06:01:00,
2013-02-27 01:07:00,44.5,44.5,29.53,NNE,16,5.0,8.0,100,0.00,,,0.00,Wunderground v.1.15,2013-02-27 06:07:00,
2013-02-27 01:12:00,44.3,44.3,29.53,NE,41,5.0,5.0,100,0.00,,,0.00,Wunderground v.1.15,2013-02-27 06:12:00,
2013-02-27 01:17:00,44.3,44.3,29.53,North,0,4.0,6.0,100,0.00,,,0.00,Wunderground v.1.15,2013-02-27 06:17:00,
2013-02-27 01:22:00,44.3,44.3,29.53,NNE,27,3.0,4.0,100,0.00,,,0.00,Wunderground v.1.15,2013-02-27 06:22:00,
2013-02-27 01:27:00,44.3,44.3,29.53,North,10,4.0,8.0,100,0.00,,,0.00,Wunderground v.1.15,2013-02-27 06:27:00,
2013-02-27 01:32:00,44.3,44.3,29.52,NE,40,4.0,4.0,100,0.00,,,0.00,Wunderground v.1.15,2013-02-27 06:32:00,
2013-02-27 01:37:00,44.3,44.3,29.52,NE,37,3.0,4.0,100,0.00,,,0.00,Wunderground v.1.15,2013-02-27 06:37:00,
2013-02-27 01:42:00,44.3,44.3,29.52,NE,37,3.0,7.0,100,0.00,,,0.00,Wunderground v.1.15,2013-02-27 06:42:00,
2013-02-27 01:47:00,44.2,44.2,29.50,NE,37,5.0,9.0,100,0.00,,,0.00,Wunderground v.1.15,2013-02-27 06:47:00,
2013-02-27 01:53:00,44.2,44.2,29.50,NNE,27,4.0,5.0,100,0.00,,,0.00,Wunderground v.1.15,2013-02-27 06:53:00,
2013-02-27 01:58:00,44.2,44.2,29.50,North,0,4.0,8.0,100,0.00,,,0.00,Wunderground v.1.15,2013-02-27 06:58:00,
2013-02-27 02:04:00,44.2,44.2,29.50,NNE,13,3.0,4.0,100,0.00,,,0.00,Wunderground v.1.15,2013-02-27 07:04:00,
2013-02-27 02:09:00,44.2,44.2,29.50,North,6,3.0,4.0,100,0.00,,,0.00,Wunderground v.1.15,2013-02-27 07:09:00,
2013-02-27 02:14:00,44.1,44.1,29.49,NNE,24,3.0,7.0,100,0.00,,,0.00,Wunderground v.1.15,2013-02-27 07:14:00,
2013-02-27 02:19:00,44.1,44.1,29.49,NE,48,2.0,7.0,100,0.00,,,0.00,Wunderground v.1.15,2013-02-27 07:19:00,
2013-02-27 02:24:00,44.1,44.1,29.49,North,6,2.0,4.0,100,0.00,,,0.00,Wunderground v.1.15,2013-02-27 07:24:00,
2013-02-27 02:31:00,44.1,44.1,29.49,NE,34,3.0,3.0,100,0.00,,,0.00,Wunderground v.1.15,2013-02-27 07:31:00,
2013-02-27 02:36:00,44.1,44.1,29.49,North,356,2.0,4.0,100,0.00,,,0.00,Wunderground v.1.15,2013-02-27 07:36:00,
2013-02-27 02:41:00,44.1,44.1,29.49,North,357,1.0,1.0,100,0.00,,,0.00,Wunderground v.1.15,2013-02-27 07:41:00,
2013-02-27 02:46:00,44.1,44.1,29.49,North,0,1.0,1.0,100,0.00,,,0.00,Wunderground v.1.15,2013-02-27 07:46:00,
2013-02-27 02:51:00,43.9,43.9,29.49,North,0,0.0,0.0,100,0.00,,,0.00,Wunderground v.1.15,2013-02-27 07:51:00,
2013-02-27 02:57:00,43.9,43.9,29.49,North,0,0.0,1.0,100,0.00,,,0.00,Wunderground v.1.15,2013-02-27 07:57:00,
2013-02-27 03:02:00,43.9,43.9,29.48,North,10,1.0,2.0,100,0.00,,,0.00,Wunderground v.1.15,2013-02-27 08:02:00,
2013-02-27 03:07:00,43.9,43.9,29.48,North,10,1.0,2.0,100,0.00,,,0.00,Wunderground v.1.15,2013-02-27 08:07:00,
2013-02-27 03:12:00,43.9,43.9,29.48,North,3,1.0,2.0,100,0.00,,,0.00,Wunderground v.1.15,2013-02-27 08:12:00,
2013-02-27 03:18:00,43.9,43.9,29.48,NNE,24,1.0,4.0,100,0.00,,,0.00,Wunderground v.1.15,2013-02-27 08:18:00,
2013-02-27 03:23:00,43.8,43.8,29.48,North,356,1.0,2.0,100,0.00,,,0.00,Wunderground v.1.15,2013-02-27 08:23:00,
2013-02-27 03:28:00,43.8,43.8,29.48,North,356,0.0,2.0,100,0.00,,,0.00,Wunderground v.1.15,2013-02-27 08:28:00,
2013-02-27 03:33:00,43.8,43.8,29.48,North,356,0.0,0.0,100,0.00,,,0.00,Wunderground v.1.15,2013-02-27 08:33:00,
2013-02-27 03:38:00,43.8,43.8,29.48,North,356,0.0,0.0,100,0.00,,,0.00,Wunderground v.1.15,2013-02-27 08:38:00,
2013-02-27 03:43:00,43.8,43.8,29.48,North,356,0.0,0.0,100,0.00,,,0.00,Wunderground v.1.15,2013-02-27 08:43:00,
2013-02-27 03:49:00,43.8,43.8,29.48,North,356,0.0,0.0,100,0.00,,,0.00,Wunderground v.1.15,2013-02-27 08:49:00,
2013-02-27 03:54:00,43.6,43.6,29.48,WNW,287,0.0,0.0,100,0.00,,,0.00,Wunderground v.1.15,2013-02-27 08:54:00,
2013-02-27 03:59:00,43.6,43.6,29.49,NW,305,1.0,4.0,100,0.00,,,0.00,Wunderground v.1.15,2013-02-27 08:59:00,
2013-02-27 04:06:00,43.6,43.6,29.49,WNW,302,1.0,2.0,100,0.00,,,0.00,Wunderground v.1.15,2013-02-27 09:06:00,
2013-02-27 04:11:00,43.6,43.6,29.49,NW,315,0.0,0.0,100,0.00,,,0.00,Wunderground v.1.15,2013-02-27 09:11:00,
2013-02-27 04:16:00,43.6,43.6,29.49,NW,312,1.0,4.0,100,0.00,,,0.00,Wunderground v.1.15,2013-02-27 09:16:00,
2013-02-27 04:22:00,43.5,43.5,29.49,WNW,287,2.0,4.0,100,0.00,,,0.00,Wunderground v.1.15,2013-02-27 09:22:00,
2013-02-27 04:27:00,43.5,43.5,29.49,NW,319,2.0,6.0,100,0.00,,,0.00,Wunderground v.1.15,2013-02-27 09:27:00,
2013-02-27 04:32:00,43.3,43.3,29.49,WNW,299,2.0,2.0,100,0.00,,,0.00,Wunderground v.1.15,2013-02-27 09:32:00,
2013-02-27 04:37:00,43.3,43.3,29.49,WNW,295,2.0,4.0,100,0.00,,,0.00,Wunderground v.1.15,2013-02-27 09:37:00,
2013-02-27 04:42:00,43.2,43.2,29.49,West,271,3.0,9.0,100,0.00,,,0.00,Wunderground v.1.15,2013-02-27 09:42:00,
2013-02-27 04:47:00,42.9,42.9,29.49,NW,313,5.0,9.0,100,0.00,,,0.00,Wunderground v.1.15,2013-02-27 09:47:00,
2013-02-27 04:52:00,42.6,42.6,29.49,WNW,285,5.0,5.0,100,0.00,,,0.00,Wunderground v.1.15,2013-02-27 09:52:00,
2013-02-27 04:57:00,42.1,42.1,29.49,West,278,3.0,9.0,100,0.00,,,0.00,Wunderground v.1.15,2013-02-27 09:57:00,
2013-02-27 05:02:00,41.6,41.6,29.50,NW,309,4.0,4.0,100,0.00,,,0.00,Wunderground v.1.15,2013-02-27 10:02:00,
2013-02-27 05:07:00,41.3,41.3,29.50,NW,322,3.0,6.0,100,0.00,,,0.00,Wunderground v.1.15,2013-02-27 10:07:00,
2013-02-27 05:12:00,41.2,41.2,29.50,NW,312,2.0,4.0,100,0.00,,,0.00,Wunderground v.1.15,2013-02-27 10:12:00,
2013-02-27 05:17:00,40.9,40.9,29.49,NW,322,1.0,7.0,100,0.00,,,0.00,Wunderground v.1.15,2013-02-27 10:17:00,
2013-02-27 05:22:00,40.8,40.8,29.49,NW,305,2.0,4.0,100,0.00,,,0.00,Wunderground v.1.15,2013-02-27 10:22:00,
2013-02-27 05:27:00,40.5,40.5,29.49,North,356,2.0,8.0,100,0.00,,,0.00,Wunderground v.1.15,2013-02-27 10:27:00,
2013-02-27 05:33:00,40.3,40.3,29.50,NNW,340,2.0,2.0,100,0.00,,,0.00,Wunderground v.1.15,2013-02-27 10:33:00,
2013-02-27 05:38:00,40.2,40.2,29.50,West,281,2.0,7.0,100,0.00,,,0.00,Wunderground v.1.15,2013-02-27 10:38:00,
2013-02-27 05:43:00,40.1,40.1,29.50,NNW,342,3.0,6.0,100,0.00,,,0.00,Wunderground v.1.15,2013-02-27 10:43:00,
2013-02-27 05:48:00,40.1,40.1,29.51,West,267,2.0,6.0,100,0.00,,,0.00,Wunderground v.1.15,2013-02-27 10:48:00,
2013-02-27 05:53:00,39.9,39.9,29.51,NW,322,2.0,7.0,100,0.00,,,0.00,Wunderground v.1.15,2013-02-27 10:53:00,
2013-02-27 05:58:00,39.8,39.8,29.51,NNW,342,3.0,7.0,100,0.00,,,0.00,Wunderground v.1.15,2013-02-27 10:58:00,
2013-02-27 06:04:00,39.8,39.8,29.51,West,278,2.0,8.0,100,0.00,,,0.00,Wunderground v.1.15,2013-02-27 11:04:00,
2013-02-27 06:09:00,39.8,39.8,29.51,NNW,333,1.0,8.0,100,0.00,,,0.00,Wunderground v.1.15,2013-02-27 11:09:00,
2013-02-27 06:14:00,39.8,39.8,29.51,NW,323,2.0,4.0,100,0.00,,,0.00,Wunderground v.1.15,2013-02-27 11:14:00,
2013-02-27 06:19:00,39.6,39.6,29.51,WNW,301,3.0,4.0,100,0.00,,,0.00,Wunderground v.1.15,2013-02-27 11:19:00,
2013-02-27 06:24:00,39.6,39.6,29.51,WNW,302,3.0,7.0,100,0.00,,,0.00,Wunderground v.1.15,2013-02-27 11:24:00,
2013-02-27 06:30:00,39.6,39.6,29.52,NW,306,3.0,3.0,100,0.00,,,0.00,Wunderground v.1.15,2013-02-27 11:30:00,
2013-02-27 06:35:00,39.8,39.8,29.52,West,261,3.0,7.0,100,0.00,,,0.00,Wunderground v.1.15,2013-02-27 11:35:00,
2013-02-27 06:40:00,39.8,39.8,29.52,NW,323,4.0,4.0,100,0.00,,,0.00,Wunderground v.1.15,2013-02-27 11:40:00,
2013-02-27 06:46:00,39.8,39.8,29.53,West,274,6.0,10.0,100,0.00,,,0.00,Wunderground v.1.15,2013-02-27 11:46:00,
2013-02-27 06:51:00,39.6,39.6,29.53,WNW,302,5.0,5.0,100,0.00,,,0.00,Wunderground v.1.15,2013-02-27 11:51:00,
2013-02-27 06:56:00,39.6,39.6,29.53,NW,311,4.0,7.0,100,0.00,,,0.00,Wunderground v.1.15,2013-02-27 11:56:00,
2013-02-27 07:01:00,39.5,39.5,29.53,WNW,287,4.0,4.0,100,0.00,,,0.00,Wunderground v.1.15,2013-02-27 12:01:00,
2013-02-27 07:06:00,39.5,39.5,29.53,North,0,3.0,7.0,100,0.00,,,0.00,Wunderground v.1.15,2013-02-27 12:06:00,
2013-02-27 07:12:00,39.3,39.3,29.53,WNW,294,3.0,3.0,100,0.00,,,0.00,Wunderground v.1.15,2013-02-27 12:12:00,
2013-02-27 07:17:00,39.3,39.3,29.54,WNW,289,4.0,4.0,100,0.00,,,0.00,Wunderground v.1.15,2013-02-27 12:17:00,
2013-02-27 07:22:00,39.2,39.2,29.54,NW,315,3.0,3.0,100,0.00,,,0.00,Wunderground v.1.15,2013-02-27 12:22:00,
2013-02-27 07:27:00,39.2,39.2,29.54,NW,316,2.0,6.0,100,0.00,,,0.00,Wunderground v.1.15,2013-02-27 12:27:00,
2013-02-27 07:32:00,39.2,39.2,29.56,NW,311,2.0,6.0,100,0.00,,,0.00,Wunderground v.1.15,2013-02-27 12:32:00,
2013-02-27 07:37:00,39.2,39.2,29.56,NW,318,4.0,9.0,100,0.00,,,0.00,Wunderground v.1.15,2013-02-27 12:37:00,
2013-02-27 07:42:00,39.2,39.2,29.56,West,277,5.0,6.0,100,0.00,,,0.00,Wunderground v.1.15,2013-02-27 12:42:00,
2013-02-27 07:47:00,39.2,39.2,29.57,WNW,284,5.0,7.0,100,0.00,,,0.00,Wunderground v.1.15,2013-02-27 12:47:00,
2013-02-27 07:52:00,39.2,39.2,29.57,West,274,4.0,7.0,100,0.00,,,0.00,Wunderground v.1.15,2013-02-27 12:52:00,
2013-02-27 07:57:00,39.2,39.2,29.57,WSW,253,3.0,7.0,100,0.00,,,0.00,Wunderground v.1.15,2013-02-27 12:57:00,
2013-02-27 08:03:00,39.3,39.3,29.58,West,281,2.0,2.0,100,0.00,,,0.00,Wunderground v.1.15,2013-02-27 13:03:00,
2013-02-27 08:08:00,39.3,39.3,29.58,NW,323,3.0,7.0,100,0.00,,,0.00,Wunderground v.1.15,2013-02-27 13:08:00,
2013-02-27 08:13:00,39.5,39.5,29.58,NW,312,5.0,6.0,100,0.00,,,0.00,Wunderground v.1.15,2013-02-27 13:13:00,
2013-02-27 08:18:00,39.5,39.5,29.58,West,271,3.0,6.0,100,0.00,,,0.00,Wunderground v.1.15,2013-02-27 13:18:00,
2013-02-27 08:23:00,39.6,39.6,29.58,North,353,3.0,3.0,100,0.00,,,0.00,Wunderground v.1.15,2013-02-27 13:23:00,
2013-02-27 08:28:00,39.8,39.8,29.58,West,260,3.0,7.0,100,0.00,,,0.00,Wunderground v.1.15,2013-02-27 13:28:00,
2013-02-27 08:34:00,39.9,39.9,29.58,West,272,3.0,7.0,100,0.00,,,0.00,Wunderground v.1.15,2013-02-27 13:34:00,
2013-02-27 08:39:00,39.9,39.9,29.58,WSW,251,3.0,3.0,100,0.00,,,0.00,Wunderground v.1.15,2013-02-27 13:39:00,
2013-02-27 08:44:00,40.3,40.3,29.59,West,261,3.0,6.0,100,0.00,,,0.00,Wunderground v.1.15,2013-02-27 13:44:00,
2013-02-27 08:49:00,40.6,40.6,29.59,SSE,158,3.0,3.0,100,0.00,,,0.00,Wunderground v.1.15,2013-02-27 13:49:00,
2013-02-27 08:54:00,40.6,40.6,29.59,NNW,342,6.0,10.0,100,0.00,,,0.00,Wunderground v.1.15,2013-02-27 13:54:00,
2013-02-27 08:59:00,40.5,40.5,29.60,NNW,329,6.0,6.0,100,0.00,,,0.00,Wunderground v.1.15,2013-02-27 13:59:00,
2013-02-27 09:06:00,40.6,40.6,29.60,West,270,3.0,8.0,100,0.00,,,0.00,Wunderground v.1.15,2013-02-27 14:06:00,
2013-02-27 09:11:00,40.8,40.8,29.60,NW,312,2.0,6.0,100,0.00,,,0.00,Wunderground v.1.15,2013-02-27 14:11:00,
2013-02-27 09:17:00,41.1,41.1,29.60,NNW,330,3.0,7.0,100,0.00,,,0.00,Wunderground v.1.15,2013-02-27 14:17:00,
2013-02-27 09:22:00,41.2,41.2,29.60,WNW,291,3.0,4.0,100,0.00,,,0.00,Wunderground v.1.15,2013-02-27 14:22:00,
2013-02-27 09:27:00,41.6,41.6,29.60,West,267,2.0,4.0,100,0.00,,,0.00,Wunderground v.1.15,2013-02-27 14:27:00,
2013-02-27 09:32:00,41.8,41.8,29.60,WNW,298,3.0,4.0,100,0.00,,,0.00,Wunderground v.1.15,2013-02-27 14:32:00,
2013-02-27 09:37:00,42.2,42.2,29.60,WNW,291,4.0,7.0,100,0.00,,,0.00,Wunderground v.1.15,2013-02-27 14:37:00,
2013-02-27 09:42:00,42.9,42.9,29.60,West,274,4.0,4.0,100,0.00,,,0.00,Wunderground v.1.15,2013-02-27 14:42:00,
2013-02-27 09:47:00,43.6,43.6,29.60,West,260,4.0,10.0,100,0.00,,,0.00,Wunderground v.1.15,2013-02-27 14:47:00,
2013-02-27 09:52:00,44.5,43.7,29.60,West,261,5.0,5.0,97,0.00,,,0.00,Wunderground v.1.15,2013-02-27 14:52:00,
2013-02-27 09:57:00,44.9,42.4,29.60,NW,322,4.0,9.0,91,0.00,,,0.00,Wunderground v.1.15,2013-02-27 14:57:00,
2013-02-27 10:03:00,45.8,41.2,29.60,WSW,258,3.0,7.0,84,0.00,,,0.00,Wunderground v.1.15,2013-02-27 15:03:00,
2013-02-27 10:08:00,46.4,40.6,29.60,WNW,284,3.0,8.0,80,0.00,,,0.00,Wunderground v.1.15,2013-02-27 15:08:00,
2013-02-27 10:13:00,46.8,40.6,29.60,West,275,4.0,9.0,79,0.00,,,0.00,Wunderground v.1.15,2013-02-27 15:13:00,
2013-02-27 10:18:00,47.3,40.8,29.60,West,275,3.0,9.0,78,0.00,,,0.00,Wunderground v.1.15,2013-02-27 15:18:00,
2013-02-27 10:23:00,47.7,40.2,29.60,West,278,3.0,6.0,75,0.00,,,0.00,Wunderground v.1.15,2013-02-27 15:23:00,
2013-02-27 10:28:00,47.7,40.2,29.60,WNW,282,4.0,11.0,75,0.00,,,0.00,Wunderground v.1.15,2013-02-27 15:28:00,
2013-02-27 10:34:00,48.2,40.3,29.60,West,265,3.0,4.0,74,0.00,,,0.00,Wunderground v.1.15,2013-02-27 15:34:00,
2013-02-27 10:39:00,48.6,40.3,29.60,NNW,336,3.0,7.0,73,0.00,,,0.00,Wunderground v.1.15,2013-02-27 15:39:00,
2013-02-27 10:44:00,48.8,40.5,29.60,West,270,4.0,4.0,73,0.00,,,0.00,Wunderground v.1.15,2013-02-27 15:44:00,
2013-02-27 10:51:00,49.4,40.7,29.60,WNW,299,3.0,3.0,72,0.00,,,0.00,Wunderground v.1.15,2013-02-27 15:51:00,
2013-02-27 10:56:00,49.9,41.6,29.60,NW,312,2.0,3.0,73,0.00,,,0.00,Wunderground v.1.15,2013-02-27 15:56:00,
2013-02-27 11:01:00,49.8,40.0,29.59,WNW,295,2.0,2.0,69,0.00,,,0.00,Wunderground v.1.15,2013-02-27 16:01:00,
2013-02-27 11:07:00,49.6,39.1,29.59,WSW,258,3.0,10.0,67,0.00,,,0.00,Wunderground v.1.15,2013-02-27 16:07:00,
2013-02-27 11:12:00,49.5,40.1,29.59,West,267,4.0,4.0,70,0.00,,,0.00,Wunderground v.1.15,2013-02-27 16:12:00,
2013-02-27 11:17:00,49.9,39.4,29.59,West,278,5.0,7.0,67,0.00,,,0.00,Wunderground v.1.15,2013-02-27 16:17:00,
2013-02-27 11:22:00,50.2,40.0,29.59,West,277,4.0,9.0,68,0.00,,,0.00,Wunderground v.1.15,2013-02-27 16:22:00,
2013-02-27 11:27:00,50.8,40.2,29.59,NNW,344,3.0,9.0,67,0.00,,,0.00,Wunderground v.1.15,2013-02-27 16:27:00,
2013-02-27 11:32:00,51.7,40.3,29.60,West,272,3.0,7.0,65,0.00,,,0.00,Wunderground v.1.15,2013-02-27 16:32:00,
2013-02-27 11:37:00,51.6,39.4,29.60,West,271,3.0,7.0,63,0.00,,,0.00,Wunderground v.1.15,2013-02-27 16:37:00,
2013-02-27 11:42:00,52.0,39.8,29.60,WNW,289,3.0,4.0,63,0.00,,,0.00,Wunderground v.1.15,2013-02-27 16:42:00,
2013-02-27 11:47:00,52.3,40.5,29.60,WSW,246,2.0,4.0,64,0.00,,,0.00,Wunderground v.1.15,2013-02-27 16:47:00,
2013-02-27 11:52:00,52.0,39.8,29.60,NW,304,3.0,7.0,63,0.00,,,0.00,Wunderground v.1.15,2013-02-27 16:52:00,
2013-02-27 11:57:00,51.7,40.7,29.60,SSW,196,3.0,9.0,66,0.00,,,0.00,Wunderground v.1.15,2013-02-27 16:57:00,
2013-02-27 12:03:00,52.0,40.6,29.60,WSW,244,2.0,6.0,65,0.00,,,0.00,Wunderground v.1.15,2013-02-27 17:03:00,
2013-02-27 12:08:00,51.7,39.9,29.60,West,271,3.0,9.0,64,0.00,,,0.00,Wunderground v.1.15,2013-02-27 17:08:00,
2013-02-27 12:14:00,52.5,40.3,29.59,NW,319,3.0,8.0,63,0.00,,,0.00,Wunderground v.1.15,2013-02-27 17:14:00,
2013-02-27 12:19:00,52.5,40.3,29.59,WNW,298,3.0,8.0,63,0.00,,,0.00,Wunderground v.1.15,2013-02-27 17:19:00,
2013-02-27 12:24:00,52.8,40.1,29.59,WNW,285,3.0,4.0,62,0.00,,,0.00,Wunderground v.1.15,2013-02-27 17:24:00,
2013-02-27 12:29:00,52.3,40.5,29.59,SW,224,4.0,7.0,64,0.00,,,0.00,Wunderground v.1.15,2013-02-27 17:29:00,
2013-02-27 12:36:00,52.9,40.6,29.59,NNW,332,2.0,3.0,63,0.00,,,0.00,Wunderground v.1.15,2013-02-27 17:36:00,
2013-02-27 12:41:00,52.5,40.3,29.59,WNW,289,1.0,6.0,63,0.00,,,0.00,Wunderground v.1.15,2013-02-27 17:41:00,
2013-02-27 12:46:00,52.2,40.0,29.58,WNW,287,0.0,1.0,63,0.00,,,0.00,Wunderground v.1.15,2013-02-27 17:46:00,
2013-02-27 12:51:00,53.3,40.2,29.58,WSW,256,1.0,4.0,61,0.00,,,0.00,Wunderground v.1.15,2013-02-27 17:51:00,
2013-02-27 12:56:00,54.1,39.6,29.58,West,267,2.0,8.0,58,0.00,,,0.00,Wunderground v.1.15,2013-02-27 17:56:00,
2013-02-27 13:02:00,54.2,39.7,29.58,WNW,285,3.0,3.0,58,0.00,,,0.00,Wunderground v.1.15,2013-02-27 18:02:00,
2013-02-27 13:07:00,54.2,39.3,29.58,SW,233,2.0,6.0,57,0.00,,,0.00,Wunderground v.1.15,2013-02-27 18:07:00,
2013-02-27 13:12:00,54.4,39.5,29.58,SW,227,2.0,2.0,57,0.00,,,0.00,Wunderground v.1.15,2013-02-27 18:12:00,
2013-02-27 13:17:00,54.2,38.8,29.58,WNW,284,2.0,2.0,56,0.00,,,0.00,Wunderground v.1.15,2013-02-27 18:17:00,
2013-02-27 13:22:00,54.5,37.7,29.58,WNW,301,3.0,10.0,53,0.00,,,0.00,Wunderground v.1.15,2013-02-27 18:22:00,
2013-02-27 13:27:00,55.0,38.2,29.58,NW,306,3.0,10.0,53,0.00,,,0.00,Wunderground v.1.15,2013-02-27 18:27:00,
2013-02-27 13:32:00,54.7,37.4,29.58,West,271,2.0,7.0,52,0.00,,,0.00,Wunderground v.1.15,2013-02-27 18:32:00,
2013-02-27 13:37:00,54.7,38.8,29.58,NW,320,3.0,8.0,55,0.00,,,0.00,Wunderground v.1.15,2013-02-27 18:37:00,
2013-02-27 13:42:00,54.2,37.9,29.58,West,268,2.0,3.0,54,0.00,,,0.00,Wunderground v.1.15,2013-02-27 18:42:00,
2013-02-27 13:47:00,54.5,37.7,29.58,West,274,2.0,6.0,53,0.00,,,0.00,Wunderground v.1.15,2013-02-27 18:47:00,
2013-02-27 13:53:00,54.8,37.5,29.58,NW,316,2.0,7.0,52,0.00,,,0.00,Wunderground v.1.15,2013-02-27 18:53:00,
2013-02-27 13:58:00,55.1,36.8,29.58,NW,323,2.0,7.0,50,0.00,,,0.00,Wunderground v.1.15,2013-02-27 18:58:00,
2013-02-27 14:04:00,55.3,37.0,29.58,West,278,2.0,8.0,50,0.00,,,0.00,Wunderground v.1.15,2013-02-27 19:04:00,
2013-02-27 14:09:00,55.1,38.3,29.58,SW,223,3.0,8.0,53,0.00,,,0.00,Wunderground v.1.15,2013-02-27 19:09:00,
2013-02-27 14:14:00,54.8,37.5,29.58,West,280,2.0,3.0,52,0.00,,,0.00,Wunderground v.1.15,2013-02-27 19:14:00,
2013-02-27 14:19:00,55.6,37.2,29.58,WNW,291,2.0,6.0,50,0.00,,,0.00,Wunderground v.1.15,2013-02-27 19:19:00,
2013-02-27 14:24:00,55.7,36.8,29.58,WNW,285,2.0,6.0,49,0.00,,,0.00,Wunderground v.1.15,2013-02-27 19:24:00,
2013-02-27 14:29:00,55.6,36.7,29.58,West,265,2.0,8.0,49,0.00,,,0.00,Wunderground v.1.15,2013-02-27 19:29:00,
2013-02-27 14:35:00,55.7,37.8,29.58,WNW,294,2.0,10.0,51,0.00,,,0.00,Wunderground v.1.15,2013-02-27 19:35:00,
2013-02-27 14:41:00,55.4,36.5,29.58,SW,223,2.0,2.0,49,0.00,,,0.00,Wunderground v.1.15,2013-02-27 19:41:00,
2013-02-27 14:46:00,55.0,36.7,29.58,NW,319,2.0,4.0,50,0.00,,,0.00,Wunderground v.1.15,2013-02-27 19:46:00,
2013-02-27 14:51:00,54.7,36.9,29.58,WNW,298,3.0,7.0,51,0.00,,,0.00,Wunderground v.1.15,2013-02-27 19:51:00,
2013-02-27 14:57:00,54.5,37.7,29.58,NNW,335,3.0,7.0,53,0.00,,,0.00,Wunderground v.1.15,2013-02-27 19:57:00,
2013-02-27 15:02:00,54.5,37.2,29.59,WNW,296,3.0,4.0,52,0.00,,,0.00,Wunderground v.1.15,2013-02-27 20:02:00,
2013-02-27 15:07:00,54.5,36.7,29.59,NW,319,3.0,6.0,51,0.00,,,0.00,Wunderground v.1.15,2013-02-27 20:07:00,
2013-02-27 15:12:00,54.5,37.2,29.59,West,271,1.0,2.0,52,0.00,,,0.00,Wunderground v.1.15,2013-02-27 20:12:00,
2013-02-27 15:17:00,54.5,36.2,29.58,WNW,284,1.0,7.0,50,0.00,,,0.00,Wunderground v.1.15,2013-02-27 20:17:00,
2013-02-27 15:23:00,54.4,36.1,29.58,NW,313,2.0,4.0,50,0.00,,,0.00,Wunderground v.1.15,2013-02-27 20:23:00,
2013-02-27 15:28:00,54.4,35.6,29.58,West,275,2.0,6.0,49,0.00,,,0.00,Wunderground v.1.15,2013-02-27 20:28:00,
2013-02-27 15:33:00,54.2,35.9,29.58,West,280,1.0,2.0,50,0.00,,,0.00,Wunderground v.1.15,2013-02-27 20:33:00,
2013-02-27 15:38:00,54.4,36.6,29.58,West,280,1.0,2.0,51,0.00,,,0.00,Wunderground v.1.15,2013-02-27 20:38:00,
2013-02-27 15:43:00,54.4,35.6,29.58,NW,306,1.0,4.0,49,0.00,,,0.00,Wunderground v.1.15,2013-02-27 20:43:00,
2013-02-27 15:49:00,54.4,34.6,29.58,NNW,332,2.0,4.0,47,0.00,,,0.00,Wunderground v.1.15,2013-02-27 20:49:00,
2013-02-27 15:56:00,54.4,34.6,29.58,NW,305,2.0,7.0,47,0.00,,,0.00,Wunderground v.1.15,2013-02-27 20:56:00,
2013-02-27 16:01:00,54.4,34.6,29.58,NW,312,2.0,2.0,47,0.00,,,0.00,Wunderground v.1.15,2013-02-27 21:01:00,
2013-02-27 16:07:00,54.4,35.1,29.58,NW,315,1.0,6.0,48,0.00,,,0.00,Wunderground v.1.15,2013-02-27 21:07:00,
2013-02-27 16:12:00,54.2,34.9,29.58,West,268,1.0,2.0,48,0.00,,,0.00,Wunderground v.1.15,2013-02-27 21:12:00,
2013-02-27 16:17:00,54.2,34.4,29.59,WNW,295,2.0,2.0,47,0.00,,,0.00,Wunderground v.1.15,2013-02-27 21:17:00,
2013-02-27 16:22:00,54.1,34.8,29.59,WNW,292,2.0,7.0,48,0.00,,,0.00,Wunderground v.1.15,2013-02-27 21:22:00,
2013-02-27 16:27:00,54.1,34.3,29.59,West,268,2.0,7.0,47,0.00,,,0.00,Wunderground v.1.15,2013-02-27 21:27:00,
2013-02-27 16:32:00,53.9,34.1,29.59,West,265,1.0,2.0,47,0.00,,,0.00,Wunderground v.1.15,2013-02-27 21:32:00,
2013-02-27 16:37:00,53.9,34.1,29.59,WNW,301,0.0,2.0,47,0.00,,,0.00,Wunderground v.1.15,2013-02-27 21:37:00,
2013-02-27 16:43:00,53.8,34.6,29.59,West,272,1.0,9.0,48,0.00,,,0.00,Wunderground v.1.15,2013-02-27 21:43:00,
2013-02-27 16:48:00,53.6,33.8,29.60,NW,311,2.0,9.0,47,0.00,,,0.00,Wunderground v.1.15,2013-02-27 21:48:00,
2013-02-27 16:53:00,53.5,33.7,29.60,WNW,299,1.0,6.0,47,0.00,,,0.00,Wunderground v.1.15,2013-02-27 21:53:00,
2013-02-27 16:58:00,53.3,33.0,29.60,NW,318,2.0,6.0,46,0.00,,,0.00,Wunderground v.1.15,2013-02-27 21:58:00,
2013-02-27 17:04:00,53.3,33.6,29.60,North,0,3.0,6.0,47,0.00,,,0.00,Wunderground v.1.15,2013-02-27 22:04:00,
2013-02-27 17:09:00,53.2,34.0,29.60,NW,304,2.0,6.0,48,0.00,,,0.00,Wunderground v.1.15,2013-02-27 22:09:00,
2013-02-27 17:16:00,53.1,33.9,29.61,NNW,336,1.0,1.0,48,0.00,,,0.00,Wunderground v.1.15,2013-02-27 22:16:00,
2013-02-27 17:21:00,52.9,34.2,29.61,North,3,1.0,1.0,49,0.00,,,0.00,Wunderground v.1.15,2013-02-27 22:21:00,
2013-02-27 17:26:00,52.8,34.2,29.61,WNW,287,0.0,4.0,49,0.00,,,0.00,Wunderground v.1.15,2013-02-27 22:26:00,
2013-02-27 17:31:00,52.6,34.5,29.61,NW,311,1.0,4.0,50,0.00,,,0.00,Wunderground v.1.15,2013-02-27 22:31:00,
2013-02-27 17:36:00,52.5,34.4,29.61,North,350,1.0,1.0,50,0.00,,,0.00,Wunderground v.1.15,2013-02-27 22:36:00,
2013-02-27 17:41:00,52.3,34.2,29.61,West,261,0.0,1.0,50,0.00,,,0.00,Wunderground v.1.15,2013-02-27 22:41:00,
2013-02-27 17:47:00,52.2,34.6,29.62,NNW,329,0.0,0.0,51,0.00,,,0.00,Wunderground v.1.15,2013-02-27 22:47:00,
2013-02-27 17:52:00,51.9,34.3,29.62,NW,304,1.0,6.0,51,0.00,,,0.00,Wunderground v.1.15,2013-02-27 22:52:00,
2013-02-27 17:57:00,51.7,33.6,29.62,NW,306,1.0,1.0,50,0.00,,,0.00,Wunderground v.1.15,2013-02-27 22:57:00,
2013-02-27 18:02:00,51.6,33.6,29.62,NW,305,0.0,1.0,50,0.00,,,0.00,Wunderground v.1.15,2013-02-27 23:02:00,
2013-02-27 18:07:00,51.4,33.4,29.62,NW,312,0.0,1.0,50,0.00,,,0.00,Wunderground v.1.15,2013-02-27 23:07:00,
2013-02-27 18:12:00,51.3,33.3,29.62,WNW,291,0.0,1.0,50,0.00,,,0.00,Wunderground v.1.15,2013-02-27 23:12:00,
2013-02-27 18:17:00,51.1,33.1,29.63,NNW,336,0.0,1.0,50,0.00,,,0.00,Wunderground v.1.15,2013-02-27 23:17:00,
2013-02-27 18:22:00,51.0,33.5,29.63,NNW,333,1.0,1.0,51,0.00,,,0.00,Wunderground v.1.15,2013-02-27 23:22:00,
2013-02-27 18:28:00,50.8,34.3,29.63,NNE,13,1.0,6.0,53,0.00,,,0.00,Wunderground v.1.15,2013-02-27 23:28:00,
2013-02-27 18:33:00,50.7,33.7,29.64,North,3,2.0,2.0,52,0.00,,,0.00,Wunderground v.1.15,2013-02-27 23:33:00,
2013-02-27 18:38:00,50.4,33.9,29.64,North,10,1.0,2.0,53,0.00,,,0.00,Wunderground v.1.15,2013-02-27 23:38:00,
2013-02-27 18:43:00,50.2,33.7,29.64,North,353,1.0,1.0,53,0.00,,,0.00,Wunderground v.1.15,2013-02-27 23:43:00,
2013-02-27 18:49:00,50.1,33.6,29.64,NW,322,0.0,2.0,53,0.00,,,0.00,Wunderground v.1.15,2013-02-27 23:49:00,
2013-02-27 18:56:00,49.9,33.9,29.64,NW,323,0.0,1.0,54,0.00,,,0.00,Wunderground v.1.15,2013-02-27 23:56:00,
2013-02-27 19:01:00,49.8,33.8,29.65,North,353,0.0,0.0,54,0.00,,,0.00,Wunderground v.1.15,2013-02-28 00:01:00,
2013-02-27 19:07:00,49.6,34.1,29.65,NNW,336,0.0,1.0,55,0.00,,,0.00,Wunderground v.1.15,2013-02-28 00:07:00,
2013-02-27 19:12:00,49.5,33.5,29.65,North,0,1.0,1.0,54,0.00,,,0.00,Wunderground v.1.15,2013-02-28 00:12:00,
2013-02-27 19:17:00,49.4,33.9,29.65,North,0,1.0,2.0,55,0.00,,,0.00,Wunderground v.1.15,2013-02-28 00:17:00,
2013-02-27 19:22:00,49.2,33.7,29.65,NNW,339,0.0,0.0,55,0.00,,,0.00,Wunderground v.1.15,2013-02-28 00:22:00,
2013-02-27 19:27:00,49.2,33.7,29.65,NNW,339,0.0,0.0,55,0.00,,,0.00,Wunderground v.1.15,2013-02-28 00:27:00,
2013-02-27 19:32:00,49.1,33.6,29.65,WNW,292,0.0,2.0,55,0.00,,,0.00,Wunderground v.1.15,2013-02-28 00:32:00,
2013-02-27 19:37:00,48.9,33.4,29.65,NW,305,0.0,2.0,55,0.00,,,0.00,Wunderground v.1.15,2013-02-28 00:37:00,
2013-02-27 19:42:00,48.8,33.8,29.65,WNW,301,0.0,0.0,56,0.00,,,0.00,Wunderground v.1.15,2013-02-28 00:42:00,
2013-02-27 19:47:00,48.8,33.8,29.65,WNW,301,0.0,0.0,56,0.00,,,0.00,Wunderground v.1.15,2013-02-28 00:47:00,
2013-02-27 19:53:00,48.6,33.6,29.65,NW,312,0.0,4.0,56,0.00,,,0.00,Wunderground v.1.15,2013-02-28 00:53:00,
2013-02-27 19:58:00,48.6,33.6,29.65,WNW,299,0.0,4.0,56,0.00,,,0.00,Wunderground v.1.15,2013-02-28 00:58:00,
2013-02-27 20:03:00,48.5,33.9,29.65,WNW,299,0.0,0.0,57,0.00,,,0.00,Wunderground v.1.15,2013-02-28 01:03:00,
2013-02-27 20:08:00,48.5,33.1,29.65,WNW,287,0.0,1.0,55,0.00,,,0.00,Wunderground v.1.15,2013-02-28 01:08:00,
2013-02-27 20:14:00,48.3,32.9,29.66,NNW,329,0.0,1.0,55,0.00,,,0.00,Wunderground v.1.15,2013-02-28 01:14:00,
2013-02-27 20:19:00,48.3,32.9,29.66,NNW,329,0.0,1.0,55,0.00,,,0.00,Wunderground v.1.15,2013-02-28 01:19:00,
2013-02-27 20:24:00,48.3,33.3,29.66,NW,326,0.0,0.0,56,0.00,,,0.00,Wunderground v.1.15,2013-02-28 01:24:00,
2013-02-27 20:29:00,48.2,33.2,29.66,NW,326,0.0,0.0,56,0.00,,,0.00,Wunderground v.1.15,2013-02-28 01:29:00,
2013-02-27 20:34:00,48.2,33.2,29.66,NW,326,0.0,0.0,56,0.00,,,0.00,Wunderground v.1.15,2013-02-28 01:34:00,
2013-02-27 20:39:00,48.0,33.5,29.66,NW,326,0.0,0.0,57,0.00,,,0.00,Wunderground v.1.15,2013-02-28 01:39:00,
2013-02-27 20:44:00,48.0,33.5,29.65,WNW,289,0.0,0.0,57,0.00,,,0.00,Wunderground v.1.15,2013-02-28 01:44:00,
2013-02-27 20:49:00,47.9,33.4,29.65,WNW,289,0.0,0.0,57,0.00,,,0.00,Wunderground v.1.15,2013-02-28 01:49:00,
2013-02-27 20:54:00,47.9,33.4,29.65,WNW,289,0.0,0.0,57,0.00,,,0.00,Wunderground v.1.15,2013-02-28 01:54:00,
2013-02-27 20:59:00,47.7,33.2,29.65,WNW,289,0.0,0.0,57,0.00,,,0.00,Wunderground v.1.15,2013-02-28 01:59:00,
2013-02-27 21:05:00,47.6,33.5,29.65,WNW,288,0.0,1.0,58,0.00,,,0.00,Wunderground v.1.15,2013-02-28 02:05:00,
2013-02-27 21:11:00,47.6,33.5,29.65,WNW,288,0.0,0.0,58,0.00,,,0.00,Wunderground v.1.15,2013-02-28 02:11:00,
2013-02-27 21:16:00,47.4,33.4,29.65,WNW,288,0.0,0.0,58,0.00,,,0.00,Wunderground v.1.15,2013-02-28 02:16:00,
2013-02-27 21:21:00,47.1,33.1,29.65,WNW,288,0.0,0.0,58,0.00,,,0.00,Wunderground v.1.15,2013-02-28 02:21:00,
2013-02-27 21:26:00,47.0,33.0,29.65,WNW,288,0.0,0.0,58,0.00,,,0.00,Wunderground v.1.15,2013-02-28 02:26:00,
2013-02-27 21:32:00,46.7,32.7,29.64,WNW,288,0.0,0.0,58,0.00,,,0.00,Wunderground v.1.15,2013-02-28 02:32:00,
2013-02-27 21:37:00,46.5,32.9,29.64,WNW,288,0.0,0.0,59,0.00,,,0.00,Wunderground v.1.15,2013-02-28 02:37:00,
2013-02-27 21:42:00,46.2,32.7,29.64,WNW,288,0.0,0.0,59,0.00,,,0.00,Wunderground v.1.15,2013-02-28 02:42:00,
2013-02-27 21:47:00,46.1,33.0,29.64,WNW,288,0.0,0.0,60,0.00,,,0.00,Wunderground v.1.15,2013-02-28 02:47:00,
2013-02-27 21:52:00,45.8,32.7,29.64,WNW,288,0.0,0.0,60,0.00,,,0.00,Wunderground v.1.15,2013-02-28 02:52:00,
2013-02-27 21:57:00,45.5,32.8,29.64,WNW,288,0.0,0.0,61,0.00,,,0.00,Wunderground v.1.15,2013-02-28 02:57:00,
2013-02-27 22:02:00,45.2,32.5,29.64,WNW,288,0.0,0.0,61,0.00,,,0.00,Wunderground v.1.15,2013-02-28 03:02:00,
2013-02-27 22:07:00,44.9,32.7,29.64,WNW,288,0.0,0.0,62,0.00,,,0.00,Wunderground v.1.15,2013-02-28 03:07:00,
2013-02-27 22:12:00,44.6,32.4,29.64,WNW,288,0.0,0.0,62,0.00,,,0.00,Wunderground v.1.15,2013-02-28 03:12:00,
2013-02-27 22:17:00,44.3,32.5,29.63,WNW,288,0.0,0.0,63,0.00,,,0.00,Wunderground v.1.15,2013-02-28 03:17:00,
2013-02-27 22:23:00,44.1,32.7,29.63,WNW,288,0.0,0.0,64,0.00,,,0.00,Wunderground v.1.15,2013-02-28 03:23:00,
2013-02-27 22:28:00,43.9,32.5,29.63,WNW,288,0.0,0.0,64,0.00,,,0.00,Wunderground v.1.15,2013-02-28 03:28:00,
2013-02-27 22:34:00,43.5,32.5,29.63,WNW,288,0.0,0.0,65,0.00,,,0.00,Wunderground v.1.15,2013-02-28 03:34:00,
2013-02-27 22:39:00,43.3,32.7,29.63,WNW,288,0.0,0.0,66,0.00,,,0.00,Wunderground v.1.15,2013-02-28 03:39:00,
2013-02-27 22:44:00,43.1,32.5,29.63,WNW,288,0.0,0.0,66,0.00,,,0.00,Wunderground v.1.15,2013-02-28 03:44:00,
2013-02-27 22:49:00,42.8,32.2,29.63,WNW,288,0.0,0.0,66,0.00,,,0.00,Wunderground v.1.15,2013-02-28 03:49:00,
2013-02-27 22:54:00,42.5,32.3,29.63,WNW,288,0.0,0.0,67,0.00,,,0.00,Wunderground v.1.15,2013-02-28 03:54:00,
2013-02-27 23:01:00,42.2,32.4,29.63,WNW,288,0.0,0.0,68,0.00,,,0.00,Wunderground v.1.15,2013-02-28 04:01:00,
2013-02-27 23:06:00,42.1,32.7,29.63,WNW,288,0.0,0.0,69,0.00,,,0.00,Wunderground v.1.15,2013-02-28 04:06:00,
2013-02-27 23:12:00,41.9,32.8,29.63,WNW,288,0.0,0.0,70,0.00,,,0.00,Wunderground v.1.15,2013-02-28 04:12:00,
2013-02-27 23:17:00,41.8,32.7,29.62,WNW,288,0.0,0.0,70,0.00,,,0.00,Wunderground v.1.15,2013-02-28 04:17:00,
2013-02-27 23:22:00,41.6,32.5,29.62,WNW,288,0.0,0.0,70,0.00,,,0.00,Wunderground v.1.15,2013-02-28 04:22:00,
2013-02-27 23:27:00,41.5,32.8,29.62,WNW,288,0.0,0.0,71,0.00,,,0.00,Wunderground v.1.15,2013-02-28 04:27:00,
2013-02-27 23:32:00,41.3,32.6,29.61,WNW,288,0.0,0.0,71,0.00,,,0.00,Wunderground v.1.15,2013-02-28 04:32:00,
2013-02-27 23:37:00,41.2,32.5,29.61,WNW,288,0.0,0.0,71,0.00,,,0.00,Wunderground v.1.15,2013-02-28 04:37:00,
2013-02-27 23:42:00,41.2,32.5,29.61,WNW,288,0.0,0.0,71,0.00,,,0.00,Wunderground v.1.15,2013-02-28 04:42:00,
2013-02-27 23:47:00,41.2,32.9,29.61,WNW,288,0.0,0.0,72,0.00,,,0.00,Wunderground v.1.15,2013-02-28 04:47:00,
2013-02-27 23:52:00,41.1,33.1,29.61,WNW,288,0.0,0.0,73,0.00,,,0.00,Wunderground v.1.15,2013-02-28 04:52:00,
2013-02-27 23:57:00,41.1,33.1,29.61,WNW,288,0.0,0.0,73,0.00,,,0.00,Wunderground v.1.15,2013-02-28 04:57:00,